Time;durP1;ratioP1;P1;durP2;ratioP2;P2;SDS_P1;SDS_P2;PMS_P1;PMS_P2;Temp;Humidity;BMP_temperature;BMP_pressure;BME280_temperature;BME280_humidity;BME280_pressure;Samples;Min_cycle;Max_cycle;Signal;HPM_P1;HPM_P2
2021/06/28 00:05:17;;;;;;;19.10;13.83;;;;;;;16.48;83.55;99174.17;4122773;84;21046;-79
2021/06/28 00:11:19;;;;;;;18.25;13.55;;;;;;;16.38;83.60;99172.87;4130410;84;21074;-80
2021/06/28 00:17:20;;;;;;;18.70;14.10;;;;;;;16.24;84.14;99173.00;4136881;84;21055;-80
2021/06/28 00:23:21;;;;;;;21.77;13.25;;;;;;;16.19;84.32;99167.91;4133223;84;21026;-80
2021/06/28 00:29:23;;;;;;;18.95;14.60;;;;;;;16.22;84.41;99158.80;4134927;84;21050;-80
2021/06/28 00:35:25;;;;;;;23.32;14.33;;;;;;;16.21;84.42;99155.86;4122069;85;21071;-80
2021/06/28 00:41:27;;;;;;;25.25;14.65;;;;;;;16.17;84.81;99147.60;4126256;85;21083;-80
2021/06/28 00:47:28;;;;;;;17.65;12.07;;;;;;;16.07;84.94;99154.61;4132404;84;21729;-80
2021/06/28 00:53:30;;;;;;;20.15;12.37;;;;;;;16.08;85.34;99154.20;4131916;84;21116;-81
2021/06/28 00:59:33;;;;;;;17.90;12.80;;;;;;;16.16;85.37;99149.39;4127483;85;21037;-80
2021/06/28 01:05:38;;;;;;;21.68;12.18;;;;;;;16.14;85.28;99149.80;4136311;85;21075;-79
2021/06/28 01:11:47;;;;;;;15.43;13.43;;;;;;;16.11;85.07;99163.63;4130228;84;21044;-80
2021/06/28 01:17:48;;;;;;;17.17;13.48;;;;;;;15.90;84.88;99159.06;4129245;84;21096;-80
2021/06/28 01:23:53;;;;;;;16.57;13.50;;;;;;;15.66;85.03;99161.39;4123267;84;21078;-80
2021/06/28 01:29:56;;;;;;;18.10;12.28;;;;;;;15.57;85.31;99160.47;4112259;85;21059;-80
2021/06/28 01:35:58;;;;;;;14.25;10.10;;;;;;;15.62;85.66;99156.50;4133050;86;21028;-80
2021/06/28 01:41:59;;;;;;;18.37;10.28;;;;;;;15.62;85.62;99155.13;4129066;86;21098;-80
2021/06/28 01:48:02;;;;;;;17.37;11.22;;;;;;;15.55;85.98;99146.91;4131406;85;21069;-80
2021/06/28 01:54:04;;;;;;;17.92;10.38;;;;;;;15.55;85.96;99143.53;4100182;85;21073;-80
2021/06/28 02:00:08;;;;;;;19.15;10.50;;;;;;;15.45;86.02;99143.61;4104552;85;21065;-80
2021/06/28 02:06:11;;;;;;;15.25;10.60;;;;;;;15.41;85.71;99147.76;4093686;85;21558;-80
2021/06/28 02:12:14;;;;;;;17.20;13.75;;;;;;;15.15;85.48;99155.16;4098871;85;21113;-79
2021/06/28 02:18:16;;;;;;;21.65;12.63;;;;;;;14.97;85.96;99157.20;4095581;85;21097;-79
2021/06/28 02:24:17;;;;;;;15.60;11.40;;;;;;;14.84;86.30;99156.08;4082389;85;21049;-79
2021/06/28 02:30:20;;;;;;;16.12;10.82;;;;;;;15.00;86.95;99161.91;4069222;85;21107;-80
2021/06/28 02:36:25;;;;;;;14.55;11.18;;;;;;;14.95;86.71;99165.69;4044951;86;21101;-81
2021/06/28 02:42:27;;;;;;;16.50;11.35;;;;;;;14.89;86.63;99172.80;4025692;86;21122;-80
2021/06/28 03:01:34;;;;;;;15.23;9.55;;;;;;;15.19;87.02;99157.91;4520548;77;23013;-80
2021/06/28 03:07:38;;;;;;;14.78;10.38;;;;;;;15.03;86.51;99156.20;4460798;78;21053;-83
2021/06/28 03:13:39;;;;;;;12.65;9.78;;;;;;;14.97;86.94;99154.44;4433118;78;21041;-80
2021/06/28 03:19:41;;;;;;;13.20;10.15;;;;;;;15.00;87.48;99162.52;4448151;78;21053;-78
2021/06/28 03:25:42;;;;;;;15.65;10.03;;;;;;;14.96;87.20;99152.88;4450844;78;21556;-77
2021/06/28 03:31:43;;;;;;;18.32;10.23;;;;;;;14.94;87.10;99153.86;4196077;78;34283;-78
2021/06/28 03:37:45;;;;;;;12.80;10.08;;;;;;;14.94;87.58;99159.98;4142953;86;21046;-77
2021/06/28 03:43:46;;;;;;;11.15;9.95;;;;;;;14.93;87.58;99159.78;4146744;85;21141;-77
2021/06/28 03:49:47;;;;;;;17.23;9.30;;;;;;;14.98;87.79;99157.41;4145562;86;21089;-77
2021/06/28 03:55:48;;;;;;;16.82;10.20;;;;;;;15.08;88.30;99160.70;4145128;86;21066;-78
2021/06/28 04:01:50;;;;;;;15.83;9.38;;;;;;;15.18;88.21;99158.50;4093968;86;21045;-77
2021/06/28 04:07:53;;;;;;;15.55;11.83;;;;;;;15.38;88.39;99158.80;4094633;86;21061;-77
2021/06/28 04:13:56;;;;;;;15.43;10.65;;;;;;;15.55;88.41;99169.74;4094301;86;21128;-78
2021/06/28 04:19:57;;;;;;;14.90;11.22;;;;;;;15.54;88.38;99165.42;4093049;86;21629;-77
2021/06/28 04:25:59;;;;;;;15.85;11.22;;;;;;;15.65;88.70;99166.73;4088930;86;21066;-77
2021/06/28 04:32:01;;;;;;;15.38;9.10;;;;;;;15.82;88.68;99169.20;4082314;86;21105;-77
2021/06/28 04:38:02;;;;;;;12.43;10.90;;;;;;;16.00;88.68;99169.83;4085828;86;21121;-77
2021/06/28 04:44:04;;;;;;;13.83;12.33;;;;;;;16.23;88.50;99171.41;4094787;86;21144;-77
2021/06/28 04:50:08;;;;;;;17.82;12.98;;;;;;;16.39;88.34;99181.33;4098739;86;21994;-78
2021/06/28 04:56:09;;;;;;;14.85;12.65;;;;;;;16.50;88.41;99178.70;4018801;88;21158;-78
2021/06/28 05:02:10;;;;;;;18.20;11.48;;;;;;;16.62;88.49;99183.70;4071480;87;21021;-78
2021/06/28 05:08:12;;;;;;;15.90;12.00;;;;;;;16.74;88.52;99188.70;4072704;87;21166;-78
2021/06/28 05:14:13;;;;;;;13.05;10.68;;;;;;;16.95;88.64;99179.39;4069174;87;22398;-77
2021/06/28 05:20:15;;;;;;;14.87;12.15;;;;;;;17.12;88.28;99183.92;4070072;87;21177;-78
2021/06/28 05:26:16;;;;;;;15.18;12.90;;;;;;;17.31;88.11;99188.03;4075102;87;21525;-78
2021/06/28 05:33:39;;;;;;;13.95;10.70;;;;;;;17.62;88.10;99189.64;4661177;74;22122;-81
2021/06/28 05:39:40;;;;;;;15.00;11.53;;;;;;;17.80;87.69;99200.64;4596098;75;21049;-81
2021/06/28 05:45:41;;;;;;;18.17;15.50;;;;;;;17.98;87.35;99217.77;4541730;75;50382;-80
2021/06/28 05:51:43;;;;;;;23.45;17.32;;;;;;;18.20;87.28;99215.45;4490280;76;21060;-81
2021/06/28 05:57:44;;;;;;;25.37;18.15;;;;;;;18.40;86.85;99222.66;4482664;76;21509;-81
2021/06/28 06:03:45;;;;;;;19.65;15.32;;;;;;;18.61;86.83;99215.37;4486674;77;21636;-80
2021/06/28 06:09:47;;;;;;;21.52;16.37;;;;;;;18.76;86.48;99208.19;4491114;77;21333;-81
2021/06/28 06:15:49;;;;;;;21.77;15.78;;;;;;;19.00;86.23;99218.81;4510526;76;21085;-81
2021/06/28 06:21:50;;;;;;;25.95;19.25;;;;;;;19.18;86.01;99210.15;4494273;77;21033;-79
2021/06/28 06:27:51;;;;;;;25.57;21.00;;;;;;;19.38;85.48;99208.97;4503577;77;21021;-79
2021/06/28 06:33:55;;;;;;;22.35;17.32;;;;;;;19.66;85.03;99204.78;4488443;77;21034;-79
2021/06/28 06:39:57;;;;;;;21.15;15.35;;;;;;;19.94;84.87;99209.10;4485318;77;21010;-79
2021/06/28 06:45:59;;;;;;;20.02;14.58;;;;;;;20.13;84.54;99205.52;4507660;76;21525;-79
2021/06/28 06:52:01;;;;;;;22.70;16.55;;;;;;;20.35;84.57;99207.75;4494138;77;21038;-78
2021/06/28 06:58:10;;;;;;;16.67;11.20;;;;;;;20.66;83.93;99213.11;4411127;78;21105;-79
2021/06/28 07:04:08;;;;;;;9.55;8.45;;;;;;;21.01;81.56;99213.60;4424536;79;21429;-78
2021/06/28 07:10:14;;;;;;;13.75;10.00;;;;;;;21.57;77.73;99225.30;4422765;79;21051;-79
2021/06/28 07:16:30;;;;;;;9.20;7.35;;;;;;;22.24;76.27;99221.09;4416244;79;21613;-79
2021/06/28 07:22:27;;;;;;;7.33;6.62;;;;;;;22.88;76.33;99226.88;4408287;79;21053;-79
2021/06/28 07:28:29;;;;;;;8.03;5.90;;;;;;;23.56;75.32;99223.84;4399865;78;21070;-79
2021/06/28 07:34:31;;;;;;;9.35;6.30;;;;;;;24.15;74.25;99222.94;4413900;79;21066;-81
2021/06/28 07:40:32;;;;;;;8.90;5.72;;;;;;;24.35;72.10;99221.15;4400107;79;21033;-81
2021/06/28 07:46:35;;;;;;;9.28;5.72;;;;;;;24.68;71.31;99227.15;4414451;79;21024;-79
2021/06/28 07:52:37;;;;;;;7.45;6.00;;;;;;;25.10;70.31;99223.16;4418616;79;21114;-80
2021/06/28 07:58:38;;;;;;;8.30;5.53;;;;;;;25.29;69.39;99226.72;4314130;81;21073;-79
2021/06/28 08:04:39;;;;;;;6.62;5.97;;;;;;;25.21;68.08;99213.66;4411502;78;21586;-80
2021/06/28 08:10:41;;;;;;;6.83;6.12;;;;;;;25.43;66.60;99224.09;4411445;79;21018;-80
2021/06/28 08:16:43;;;;;;;6.83;6.12;;;;;;;25.54;66.68;99216.59;4412505;79;21587;-82
2021/06/28 08:22:46;;;;;;;8.33;5.20;;;;;;;25.57;63.75;99223.45;4425702;79;21070;-79
2021/06/28 08:28:47;;;;;;;7.00;6.35;;;;;;;25.56;63.90;99222.52;4414903;79;21078;-82
2021/06/28 08:34:49;;;;;;;7.37;5.90;;;;;;;25.34;61.61;99222.68;4401774;79;21564;-79
2021/06/28 08:40:50;;;;;;;6.35;5.75;;;;;;;25.34;61.61;99222.68;4411672;79;21456;-82
2021/06/28 08:46:52;;;;;;;8.00;6.53;;;;;;;25.38;60.75;99222.53;4404875;78;21056;-80
2021/06/28 08:52:54;;;;;;;6.72;6.05;;;;;;;25.31;60.66;99228.44;4336322;80;21012;-80
2021/06/28 08:58:56;;;;;;;7.53;6.30;;;;;;;25.45;59.89;99232.03;4416058;79;21050;-79
2021/06/28 09:05:06;;;;;;;7.00;6.30;;;;;;;25.44;56.70;99219.25;4404611;78;21107;-79
2021/06/28 09:11:13;;;;;;;5.60;5.10;;;;;;;25.60;57.55;99213.31;4416936;79;21109;-80
2021/06/28 09:17:36;;;;;;;6.17;5.30;;;;;;;25.70;57.25;99217.01;4393307;79;21086;-81
2021/06/28 09:23:40;;;;;;;6.97;5.40;;;;;;;25.71;57.03;99200.36;4425661;78;21002;-81
2021/06/28 09:29:52;;;;;;;8.58;5.45;;;;;;;25.97;57.21;99223.94;4414422;78;21034;-81
2021/06/28 09:35:51;;;;;;;7.85;5.65;;;;;;;26.20;56.93;99223.89;4404238;79;21045;-81
2021/06/28 09:41:59;;;;;;;6.62;5.83;;;;;;;26.60;56.72;99220.70;4420407;79;21031;-81
2021/06/28 09:48:01;;;;;;;5.92;5.22;;;;;;;26.81;55.64;99214.80;4417160;79;21021;-82
2021/06/28 09:54:16;;;;;;;7.65;5.42;;;;;;;26.94;55.14;99211.73;4344394;80;21075;-80
2021/06/28 10:00:25;;;;;;;5.33;4.35;;;;;;;26.98;53.61;99210.33;4331417;80;21042;-81
2021/06/28 10:06:29;;;;;;;6.78;5.30;;;;;;;26.78;53.73;99204.52;4333200;80;21044;-81
2021/06/28 10:12:31;;;;;;;7.42;5.50;;;;;;;26.30;53.41;99197.33;4343605;79;21108;-82
2021/06/28 10:18:32;;;;;;;6.35;4.80;;;;;;;26.64;53.15;99191.21;4410697;79;21086;-81
2021/06/28 10:24:35;;;;;;;4.67;4.28;;;;;;;26.93;52.43;99196.16;4419053;79;21066;-81
2021/06/28 10:30:37;;;;;;;4.75;4.22;;;;;;;27.31;52.09;99182.88;4414144;79;21054;-82
2021/06/28 10:36:39;;;;;;;4.53;3.77;;;;;;;27.59;50.68;99171.48;4395551;78;21050;-84
2021/06/28 10:42:48;;;;;;;5.47;3.72;;;;;;;27.96;50.17;99170.47;4409536;79;21028;-81
2021/06/28 10:48:50;;;;;;;4.12;3.58;;;;;;;28.22;48.20;99174.83;4416749;79;21070;-81
2021/06/28 10:54:52;;;;;;;4.85;3.37;;;;;;;28.33;48.31;99166.55;4415369;79;21369;-82
2021/06/28 11:01:04;;;;;;;5.33;3.30;;;;;;;28.83;46.35;99163.11;4407125;79;20991;-81
2021/06/28 11:07:17;;;;;;;3.62;3.33;;;;;;;29.01;44.54;99164.86;4399254;79;21051;-80
2021/06/28 11:13:37;;;;;;;3.50;3.05;;;;;;;29.51;44.64;99163.36;4418659;79;21752;-81
2021/06/28 11:20:02;;;;;;;4.28;3.20;;;;;;;29.92;42.21;99154.10;4416837;78;21082;-82
2021/06/28 11:26:02;;;;;;;6.87;3.60;;;;;;;30.33;42.90;99164.69;4430337;78;21049;-81
2021/06/28 11:32:23;;;;;;;4.92;3.33;;;;;;;30.89;42.55;99150.82;4429534;78;21058;-82
2021/06/28 11:38:28;;;;;;;3.55;3.25;;;;;;;30.90;41.48;99149.56;4424436;78;21097;-82
2021/06/28 11:44:29;;;;;;;7.35;4.30;;;;;;;31.15;41.72;99140.87;4421016;79;21073;-81
2021/06/28 11:50:37;;;;;;;4.42;3.90;;;;;;;31.44;41.48;99139.03;4418617;78;21018;-81
2021/06/28 11:56:51;;;;;;;17.00;7.08;;;;;;;31.57;40.65;99141.35;4423718;78;21015;-81
2021/06/28 12:03:24;;;;;;;8.53;5.53;;;;;;;31.77;40.43;99131.19;4408762;78;21098;-81
2021/06/28 12:09:31;;;;;;;3.33;2.90;;;;;;;31.70;39.62;99125.39;4421736;78;21118;-80
2021/06/28 12:15:34;;;;;;;3.85;3.27;;;;;;;30.99;38.41;99120.42;4412873;78;21457;-81
2021/06/28 12:21:40;;;;;;;4.83;3.00;;;;;;;30.55;38.63;99115.34;4413817;78;21126;-81
2021/06/28 12:27:47;;;;;;;4.17;3.35;;;;;;;30.44;39.49;99114.55;4425896;78;21037;-80
2021/06/28 12:34:05;;;;;;;;;;;;;;;;;;;;;
2021/06/28 12:40:30;;;;;;;4.72;3.00;;;;;;;29.66;39.06;99108.26;4418770;78;21574;-82
2021/06/28 12:46:30;;;;;;;4.95;3.25;;;;;;;29.40;38.63;99099.02;4401070;79;21078;-80
2021/06/28 12:52:36;;;;;;;5.08;3.87;;;;;;;29.15;39.27;99091.36;4416356;78;20998;-79
2021/06/28 12:58:51;;;;;;;4.65;3.45;;;;;;;28.93;39.21;99086.25;4421217;78;20999;-81
2021/06/28 13:05:08;;;;;;;9.00;5.08;;;;;;;28.68;39.10;99079.97;4407566;78;21042;-80
2021/06/28 13:11:18;;;;;;;3.15;2.80;;;;;;;28.35;39.71;99085.16;4407636;78;21077;-82
2021/06/28 13:17:29;;;;;;;3.20;2.90;;;;;;;27.97;39.69;99079.81;4430028;78;20982;-80
2021/06/28 13:23:31;;;;;;;4.55;3.08;;;;;;;27.89;39.93;99078.05;4398190;79;21715;-81
2021/06/28 13:29:40;;;;;;;4.37;3.30;;;;;;;27.95;40.01;99068.27;4402905;79;21007;-80
2021/06/28 13:35:43;;;;;;;5.58;3.65;;;;;;;27.81;40.28;99071.25;4427995;78;21098;-80
2021/06/28 13:41:48;;;;;;;4.03;3.62;;;;;;;27.76;41.48;99069.74;4445652;78;21039;-81
2021/06/28 13:48:08;;;;;;;3.98;3.58;;;;;;;27.61;40.74;99076.17;4429373;78;21069;-81
2021/06/28 13:54:09;;;;;;;3.42;3.10;;;;;;;27.59;41.13;99075.88;4438916;78;21570;-81
2021/06/28 14:00:12;;;;;;;3.47;3.17;;;;;;;27.56;40.53;99074.05;4420518;78;21036;-80
2021/06/28 14:06:15;;;;;;;3.65;3.35;;;;;;;27.55;40.46;99064.08;4278046;81;21039;-82
2021/06/28 14:12:16;;;;;;;3.65;3.30;;;;;;;27.54;41.02;99067.38;4424246;78;21049;-81
2021/06/28 14:18:17;;;;;;;3.58;3.27;;;;;;;27.63;40.53;99063.69;4430079;78;21105;-81
2021/06/28 14:24:20;;;;;;;6.28;3.58;;;;;;;27.47;41.28;99064.33;4431314;78;21015;-81
2021/06/28 14:30:23;;;;;;;4.10;3.70;;;;;;;27.28;41.70;99062.23;4366372;80;21061;-81
2021/06/28 14:36:24;;;;;;;5.47;3.45;;;;;;;27.00;42.66;99063.11;4344215;80;21034;-81
2021/06/28 14:42:26;;;;;;;3.83;3.33;;;;;;;27.02;43.35;99057.01;4332974;80;21507;-80
2021/06/28 14:48:28;;;;;;;4.97;3.72;;;;;;;27.18;42.90;99058.72;4326427;80;21046;-81
2021/06/28 14:54:30;;;;;;;5.08;3.98;;;;;;;27.26;42.35;99059.12;4331756;80;21051;-81
2021/06/28 15:00:31;;;;;;;4.67;4.25;;;;;;;27.25;42.06;99060.37;4336896;80;21017;-80
2021/06/28 15:06:32;;;;;;;4.17;3.77;;;;;;;27.15;42.25;99057.50;4351407;80;21400;-80
2021/06/28 15:12:34;;;;;;;6.47;3.98;;;;;;;26.99;42.65;99053.14;4340254;80;21053;-80
2021/06/28 15:18:36;;;;;;;7.78;5.28;;;;;;;26.79;43.15;99053.04;4340551;80;21130;-81
2021/06/28 15:24:37;;;;;;;7.20;5.35;;;;;;;26.69;43.86;99044.55;4334601;80;21140;-81
2021/06/28 15:30:38;;;;;;;7.75;5.03;;;;;;;26.65;44.60;99036.17;4337106;80;21088;-82
2021/06/28 15:36:40;;;;;;;6.58;5.40;;;;;;;26.57;45.04;99036.37;4336485;80;21054;-81
2021/06/28 15:42:41;;;;;;;8.53;5.95;;;;;;;26.45;45.74;99032.55;4331044;80;21074;-81
2021/06/28 15:48:42;;;;;;;7.20;6.03;;;;;;;26.33;46.21;99039.86;4331116;80;21063;-81
2021/06/28 15:54:43;;;;;;;6.47;5.60;;;;;;;26.27;46.71;99034.13;4343202;80;21098;-81
2021/06/28 16:00:45;;;;;;;6.25;5.58;;;;;;;26.09;46.95;99002.77;4338728;80;21056;-81
2021/06/28 16:06:47;;;;;;;8.65;5.87;;;;;;;26.28;47.47;99022.28;4345375;80;20995;-82
2021/06/28 16:12:49;;;;;;;6.87;5.80;;;;;;;26.27;47.75;99020.71;4339413;80;21074;-81
2021/06/28 16:18:50;;;;;;;11.60;6.00;;;;;;;26.21;47.77;99015.62;4350125;80;21037;-81
2021/06/28 16:24:53;;;;;;;7.22;6.03;;;;;;;26.14;48.10;99013.95;4341515;80;21068;-81
2021/06/28 16:30:55;;;;;;;10.75;5.58;;;;;;;26.04;48.15;99016.05;4340646;80;21053;-81
2021/06/28 16:36:57;;;;;;;9.18;5.60;;;;;;;25.80;48.42;98993.45;4387709;80;21106;-81
2021/06/28 16:42:59;;;;;;;5.65;5.08;;;;;;;25.73;49.21;99004.39;4415555;80;20993;-80
2021/06/28 16:49:00;;;;;;;6.58;4.90;;;;;;;25.48;49.40;99011.09;4398213;80;22113;-80
2021/06/28 16:55:02;;;;;;;10.38;5.62;;;;;;;25.29;49.88;99004.73;4379267;80;21006;-81
2021/06/28 17:01:05;;;;;;;8.48;5.12;;;;;;;25.14;50.19;99005.27;4392368;80;21058;-81
2021/06/28 17:07:07;;;;;;;7.30;4.95;;;;;;;25.07;50.48;99009.05;4400522;80;20965;-81
2021/06/28 17:13:08;;;;;;;5.50;4.83;;;;;;;25.00;50.92;99005.95;4371315;80;21998;-80
2021/06/28 17:19:10;;;;;;;5.33;4.80;;;;;;;24.92;51.12;99001.92;4279156;81;21035;-81
2021/06/28 17:25:12;;;;;;;6.28;5.45;;;;;;;24.82;51.51;99003.21;4282338;82;21099;-81
2021/06/28 17:31:15;;;;;;;20.10;7.20;;;;;;;24.70;52.02;99001.99;4286822;81;21048;-81
2021/06/28 17:37:16;;;;;;;12.65;6.45;;;;;;;24.60;52.47;98999.80;4404217;79;21113;-81
2021/06/28 17:43:19;;;;;;;15.32;7.92;;;;;;;24.48;52.71;99005.72;4422035;78;21046;-82
2021/06/28 17:49:22;;;;;;;386.05;98.22;;;;;;;24.38;53.00;99005.55;4421962;78;21062;-81
2021/06/28 17:55:24;;;;;;;33.92;12.70;;;;;;;24.20;53.12;98995.78;4424834;78;21023;-81
2021/06/28 18:01:26;;;;;;;7.20;5.78;;;;;;;24.08;53.26;98999.52;4430221;78;21029;-81
2021/06/28 18:07:28;;;;;;;129.07;35.33;;;;;;;23.91;53.51;99002.42;4414827;78;21077;-81
2021/06/28 18:13:29;;;;;;;12.07;5.97;;;;;;;23.77;53.80;99005.03;4420613;78;21581;-81
2021/06/28 18:19:32;;;;;;;9.33;6.35;;;;;;;23.63;54.19;99005.02;4421190;78;21012;-81
2021/06/28 18:25:33;;;;;;;7.65;5.62;;;;;;;23.49;54.50;99006.20;4284193;79;9999653;-81
2021/06/28 18:31:34;;;;;;;9.93;6.83;;;;;;;23.34;55.01;99010.19;4413960;79;21089;-82
2021/06/28 18:37:36;;;;;;;7.85;6.92;;;;;;;23.19;55.42;99009.17;4427077;79;21025;-81
2021/06/28 18:43:38;;;;;;;8.55;6.92;;;;;;;22.99;55.84;99003.95;4416447;79;21082;-84
2021/06/28 18:49:39;;;;;;;10.38;6.22;;;;;;;22.87;56.16;99007.62;4412071;79;21029;-83
2021/06/28 18:55:41;;;;;;;7.55;6.78;;;;;;;22.67;56.57;99000.22;4412558;79;20997;-81
2021/06/28 19:01:55;;;;;;;7.87;6.90;;;;;;;22.47;57.19;99006.72;4414839;79;21019;-82
2021/06/28 19:07:47;;;;;;;7.92;6.95;;;;;;;22.31;57.60;99015.88;4399671;79;21013;-82
2021/06/28 19:13:49;;;;;;;9.05;7.47;;;;;;;22.06;58.22;99011.19;4404759;79;21807;-81
2021/06/28 19:19:50;;;;;;;11.90;8.68;;;;;;;21.91;58.87;99014.91;4406879;78;21494;-81
2021/06/28 19:25:52;;;;;;;15.28;10.98;;;;;;;21.71;60.37;99017.31;4409883;79;21959;-80
2021/06/28 19:31:53;;;;;;;15.30;9.48;;;;;;;21.59;60.15;99011.77;4406917;79;21029;-81
2021/06/28 19:37:54;;;;;;;18.45;10.43;;;;;;;21.44;60.72;99023.97;4348258;80;21004;-81
2021/06/28 19:43:57;;;;;;;21.42;12.80;;;;;;;21.35;61.43;99020.30;4335108;80;21089;-81
2021/06/28 19:49:59;;;;;;;20.82;11.68;;;;;;;21.31;61.48;99028.76;4339073;80;21075;-85
2021/06/28 19:56:00;;;;;;;18.00;12.10;;;;;;;21.17;61.93;99028.44;4218950;80;9999928;-81
2021/06/28 20:02:01;;;;;;;20.23;13.65;;;;;;;20.91;62.67;99028.98;4331698;80;21179;-81
2021/06/28 20:08:03;;;;;;;18.02;11.68;;;;;;;20.78;62.98;99032.34;4342177;80;22095;-81
2021/06/28 20:14:04;;;;;;;17.57;11.60;;;;;;;20.61;63.39;99033.64;4331621;80;21030;-80
2021/06/28 20:20:07;;;;;;;19.27;12.33;;;;;;;20.35;63.97;99033.41;4343015;80;21065;-81
2021/06/28 20:26:08;;;;;;;19.50;12.10;;;;;;;20.19;64.37;99034.23;4341943;80;21055;-81
2021/06/28 20:32:12;;;;;;;14.43;10.60;;;;;;;20.15;64.66;99041.10;4337455;80;21670;-81
2021/06/28 20:38:14;;;;;;;13.53;9.68;;;;;;;20.10;65.15;99047.95;4400741;79;21113;-81
2021/06/28 20:44:15;;;;;;;18.37;10.20;;;;;;;20.00;65.54;99050.38;4408335;79;22015;-81
2021/06/28 20:50:17;;;;;;;15.40;9.75;;;;;;;19.89;65.86;99038.76;4400161;79;21526;-81
2021/06/28 20:56:18;;;;;;;19.87;9.23;;;;;;;19.82;65.92;99039.55;4402704;79;21074;-80
2021/06/28 21:02:19;;;;;;;11.08;7.97;;;;;;;19.71;67.17;99043.99;4399314;79;21064;-81
2021/06/28 21:08:21;;;;;;;12.10;8.83;;;;;;;19.76;67.32;99051.78;4400653;79;21054;-80
2021/06/28 21:14:22;;;;;;;13.95;9.33;;;;;;;19.76;67.51;99052.41;4395053;79;22196;-80
2021/06/28 21:20:23;;;;;;;12.07;8.63;;;;;;;19.73;67.48;99051.27;4403825;79;22023;-80
2021/06/28 21:26:24;;;;;;;10.68;8.93;;;;;;;19.76;68.09;99042.06;4404717;79;21472;-80
2021/06/28 21:32:29;;;;;;;15.08;9.55;;;;;;;19.64;68.27;99045.55;4404013;79;21465;-80
2021/06/28 21:38:30;;;;;;;12.05;10.05;;;;;;;19.38;68.99;99036.86;4405396;79;21105;-80
2021/06/28 21:44:31;;;;;;;10.28;9.23;;;;;;;19.29;69.22;99035.89;4404731;79;21477;-81
2021/06/28 21:50:33;;;;;;;17.90;9.53;;;;;;;19.12;69.29;99042.60;4415132;79;21085;-81
2021/06/28 21:56:34;;;;;;;10.50;8.58;;;;;;;19.18;70.34;99040.28;4395519;79;21049;-80
2021/06/28 22:02:35;;;;;;;12.43;9.43;;;;;;;19.10;70.71;99035.31;4410762;79;21541;-80
2021/06/28 22:08:37;;;;;;;12.70;8.93;;;;;;;18.99;71.06;99031.39;4400711;79;21014;-81
2021/06/28 22:14:39;;;;;;;20.48;14.00;;;;;;;18.82;71.35;99041.48;4409934;79;21604;-80
2021/06/28 22:20:41;;;;;;;46.85;31.73;;;;;;;18.66;71.73;99039.43;4410908;79;21054;-80
2021/06/28 22:26:43;;;;;;;26.40;16.87;;;;;;;18.56;71.95;99035.66;4400016;79;21521;-80
2021/06/28 22:32:45;;;;;;;20.45;14.78;;;;;;;18.39;72.49;99034.03;4405209;79;21006;-81
2021/06/28 22:38:47;;;;;;;20.72;15.18;;;;;;;18.26;72.76;99041.37;4354901;80;21141;-80
2021/06/28 22:44:48;;;;;;;14.83;8.65;;;;;;;18.25;73.35;99045.36;4351182;80;21097;-80
2021/06/28 22:50:50;;;;;;;16.05;10.72;;;;;;;18.39;73.93;99043.73;4356986;80;21030;-80
2021/06/28 22:56:54;;;;;;;16.55;12.55;;;;;;;18.45;73.89;99032.91;4359043;80;21010;-81
2021/06/28 23:02:55;;;;;;;21.73;13.40;;;;;;;18.24;73.92;99025.80;4357629;80;21034;-80
2021/06/28 23:08:56;;;;;;;16.87;11.55;;;;;;;18.09;74.41;99020.32;4427803;78;21006;-80
2021/06/28 23:14:58;;;;;;;24.90;18.50;;;;;;;18.06;74.81;99027.30;4429699;78;21086;-80
2021/06/28 23:21:00;;;;;;;29.10;20.37;;;;;;;17.99;74.98;99015.78;4424628;79;21002;-80
2021/06/28 23:27:02;;;;;;;18.70;12.15;;;;;;;17.88;75.24;99011.03;4414551;79;21043;-80
2021/06/28 23:33:03;;;;;;;20.45;16.10;;;;;;;17.70;75.76;99004.22;4389379;79;21063;-80
2021/06/28 23:39:06;;;;;;;20.97;16.42;;;;;;;17.58;75.96;98998.70;4350424;80;21550;-80
2021/06/28 23:45:10;;;;;;;23.98;15.98;;;;;;;17.50;76.26;98990.92;4362050;80;21007;-80
2021/06/28 23:51:11;;;;;;;30.50;14.10;;;;;;;17.43;76.53;98984.88;4294577;81;21120;-80
2021/06/28 23:57:12;;;;;;;13.62;10.75;;;;;;;17.36;76.91;98985.00;4357710;79;21019;-79
